Time;durP1;ratioP1;P1;durP2;ratioP2;P2;SDS_P1;SDS_P2;PMS_P1;PMS_P2;Temp;Humidity;BMP_temperature;BMP_pressure;BME280_temperature;BME280_humidity;BME280_pressure;Samples;Min_cycle;Max_cycle;Signal;HPM_P1;HPM_P2
2024/02/22 00:02:19;;;;;;;0.50;0.37;;;11.20;99.90;;;;;;5056679;28;20448;-59
2024/02/22 00:04:46;;;;;;;0.40;0.40;;;11.20;99.90;;;;;;5056804;28;20523;-58
2024/02/22 00:07:15;;;;;;;0.40;0.30;;;11.20;99.90;;;;;;5056907;28;20445;-58
2024/02/22 00:09:42;;;;;;;0.53;0.40;;;11.10;99.90;;;;;;5056026;28;20956;-58
2024/02/22 00:12:11;;;;;;;0.40;0.40;;;11.20;99.90;;;;;;5056178;28;20495;-58
2024/02/22 00:14:39;;;;;;;0.60;0.43;;;11.20;99.90;;;;;;5055857;28;20441;-58
2024/02/22 00:17:06;;;;;;;0.50;0.30;;;11.20;99.90;;;;;;5056062;28;20817;-57
2024/02/22 00:19:33;;;;;;;0.40;0.30;;;11.20;99.90;;;;;;5056374;28;20805;-57
2024/02/22 00:22:00;;;;;;;0.53;0.40;;;11.20;99.90;;;;;;5056346;28;20445;-57
2024/02/22 00:24:27;;;;;;;1.40;0.30;;;11.20;99.90;;;;;;5056129;28;20433;-58
2024/02/22 00:26:54;;;;;;;0.47;0.40;;;11.20;99.90;;;;;;5056034;28;20990;-57
2024/02/22 00:29:22;;;;;;;0.73;0.53;;;11.20;99.90;;;;;;5055776;28;20453;-58
2024/02/22 00:31:48;;;;;;;0.47;0.40;;;11.20;99.90;;;;;;5056230;28;20481;-58
2024/02/22 00:34:15;;;;;;;0.40;0.30;;;11.20;99.90;;;;;;5056305;28;20455;-58
2024/02/22 00:36:42;;;;;;;0.40;0.30;;;11.20;99.90;;;;;;5056529;28;20445;-58
2024/02/22 00:39:10;;;;;;;1.23;0.63;;;11.30;99.90;;;;;;5056159;28;20456;-58
2024/02/22 00:41:37;;;;;;;0.40;0.30;;;11.30;99.90;;;;;;5056273;28;20959;-58
2024/02/22 00:44:05;;;;;;;0.40;0.30;;;11.30;99.90;;;;;;5055811;28;20449;-58
2024/02/22 00:46:33;;;;;;;2.63;0.50;;;11.20;99.90;;;;;;5055712;28;20449;-58
2024/02/22 00:49:00;;;;;;;0.40;0.30;;;11.20;99.90;;;;;;5055752;28;20515;-58
2024/02/22 00:51:26;;;;;;;1.27;0.30;;;11.20;99.90;;;;;;5055373;28;20485;-58
2024/02/22 00:53:53;;;;;;;0.87;0.50;;;11.20;99.90;;;;;;5054782;28;20469;-58
2024/02/22 00:56:20;;;;;;;0.40;0.30;;;11.20;99.90;;;;;;5055163;28;20532;-58
2024/02/22 00:58:48;;;;;;;0.40;0.30;;;11.20;99.90;;;;;;5055042;28;20450;-58
2024/02/22 01:01:16;;;;;;;0.50;0.40;;;11.20;99.90;;;;;;5054639;28;20472;-58
2024/02/22 01:03:44;;;;;;;0.97;0.40;;;11.20;99.90;;;;;;5054698;28;21050;-58
2024/02/22 01:06:13;;;;;;;0.40;0.30;;;11.20;99.90;;;;;;5055220;28;20438;-58
2024/02/22 01:08:40;;;;;;;0.87;0.50;;;11.20;99.90;;;;;;5054692;28;20457;-58
2024/02/22 01:11:07;;;;;;;0.60;0.30;;;11.20;99.90;;;;;;5054649;28;20495;-58
2024/02/22 01:13:34;;;;;;;1.63;0.90;;;11.20;99.90;;;;;;5054708;28;20442;-58
2024/02/22 01:16:00;;;;;;;1.37;0.50;;;11.20;99.90;;;;;;5054597;28;20446;-58
2024/02/22 01:18:27;;;;;;;1.03;0.30;;;11.20;99.90;;;;;;5054551;28;20478;-58
2024/02/22 01:20:55;;;;;;;0.40;0.37;;;11.20;99.90;;;;;;5054643;28;20460;-58
2024/02/22 01:23:23;;;;;;;1.50;0.50;;;11.20;99.90;;;;;;5054525;28;20443;-58
2024/02/22 01:25:50;;;;;;;0.40;0.30;;;11.20;99.90;;;;;;5054229;28;20469;-58
2024/02/22 01:28:16;;;;;;;0.60;0.30;;;11.30;99.90;;;;;;5054385;28;20531;-58
2024/02/22 01:30:43;;;;;;;0.93;0.30;;;11.30;99.90;;;;;;5054335;28;20493;-58
2024/02/22 01:33:09;;;;;;;1.10;0.50;;;11.30;99.90;;;;;;5054167;28;20445;-58
2024/02/22 01:35:36;;;;;;;0.60;0.30;;;11.30;99.90;;;;;;5054331;28;20449;-58
2024/02/22 01:38:05;;;;;;;0.80;0.37;;;11.30;99.90;;;;;;5054335;28;20452;-58
2024/02/22 01:40:31;;;;;;;0.40;0.40;;;11.20;99.90;;;;;;5053596;28;20548;-58
2024/02/22 01:42:58;;;;;;;0.40;0.30;;;11.30;99.90;;;;;;5053942;28;20437;-58
2024/02/22 01:45:25;;;;;;;0.50;0.30;;;11.30;99.90;;;;;;5054120;28;20445;-58
2024/02/22 01:47:52;;;;;;;0.60;0.30;;;11.30;99.90;;;;;;5054221;28;20446;-58
2024/02/22 01:50:20;;;;;;;0.67;0.30;;;11.30;99.90;;;;;;5054209;28;20470;-58
2024/02/22 01:52:47;;;;;;;0.30;0.30;;;11.30;99.90;;;;;;5054040;28;20438;-58
2024/02/22 01:55:20;;;;;;;0.73;0.40;;;11.40;99.90;;;;;;5053830;28;20938;-63
2024/02/22 01:57:47;;;;;;;0.53;0.27;;;11.40;99.90;;;;;;5053659;28;20946;-58
2024/02/22 02:00:17;;;;;;;0.30;0.20;;;11.40;99.90;;;;;;5054154;28;21003;-58
2024/02/22 02:02:44;;;;;;;0.70;0.30;;;11.40;99.90;;;;;;5056231;28;20433;-58
2024/02/22 02:05:11;;;;;;;0.63;0.30;;;11.40;99.90;;;;;;5054307;28;20441;-58
2024/02/22 02:07:39;;;;;;;1.43;0.23;;;11.40;99.90;;;;;;5054316;28;20445;-58
2024/02/22 02:10:09;;;;;;;1.27;0.30;;;11.40;99.90;;;;;;5054091;28;20458;-58
2024/02/22 02:12:37;;;;;;;2.40;0.40;;;11.40;99.90;;;;;;5053744;28;20527;-58
2024/02/22 02:15:04;;;;;;;0.50;0.30;;;11.40;99.90;;;;;;5053529;28;20456;-57
2024/02/22 02:17:31;;;;;;;0.70;0.50;;;11.40;99.90;;;;;;5053596;28;20446;-57
2024/02/22 02:20:04;;;;;;;0.50;0.30;;;11.40;99.90;;;;;;5053723;28;20471;-58
2024/02/22 02:22:43;;;;;;;1.37;0.30;;;11.40;99.90;;;;;;5053408;28;20908;-58
2024/02/22 02:25:12;;;;;;;0.70;0.40;;;11.40;99.90;;;;;;5053770;28;20436;-58
2024/02/22 02:27:39;;;;;;;0.43;0.30;;;11.40;99.90;;;;;;5053709;28;20447;-58
2024/02/22 02:30:06;;;;;;;0.30;0.30;;;11.40;99.90;;;;;;5053391;28;20480;-58
2024/02/22 02:32:33;;;;;;;0.50;0.30;;;11.40;99.90;;;;;;5053178;28;20927;-57
2024/02/22 02:35:00;;;;;;;2.40;0.67;;;11.40;99.90;;;;;;5053489;28;20529;-58
2024/02/22 02:37:27;;;;;;;0.87;0.27;;;11.40;99.90;;;;;;5053325;28;20449;-58
2024/02/22 02:39:54;;;;;;;0.37;0.30;;;11.40;99.90;;;;;;5053710;28;20461;-58
2024/02/22 02:42:22;;;;;;;1.03;0.30;;;11.40;99.90;;;;;;5053334;28;20446;-58
2024/02/22 02:44:49;;;;;;;1.47;0.40;;;11.40;99.90;;;;;;5053335;28;20445;-58
2024/02/22 02:47:16;;;;;;;0.30;0.20;;;11.40;99.90;;;;;;5053358;28;20958;-58
2024/02/22 02:49:43;;;;;;;0.60;0.30;;;11.40;99.90;;;;;;5052930;28;20952;-58
2024/02/22 02:52:10;;;;;;;0.40;0.40;;;11.40;99.90;;;;;;5052933;28;20481;-58
2024/02/22 02:54:37;;;;;;;0.50;0.30;;;11.40;99.90;;;;;;5053163;28;20464;-57
2024/02/22 02:57:04;;;;;;;0.40;0.30;;;11.40;99.90;;;;;;5053232;28;20442;-57
2024/02/22 02:59:32;;;;;;;1.60;0.30;;;11.40;99.90;;;;;;5053159;28;20528;-58
2024/02/22 03:01:59;;;;;;;1.37;0.30;;;11.40;99.90;;;;;;5052989;28;20449;-58
2024/02/22 03:04:25;;;;;;;0.37;0.30;;;11.40;99.90;;;;;;5052968;28;20441;-57
2024/02/22 03:06:52;;;;;;;0.70;0.30;;;11.40;99.90;;;;;;5052960;28;20816;-58
2024/02/22 03:09:19;;;;;;;0.30;0.30;;;11.30;99.90;;;;;;5053093;28;20543;-58
2024/02/22 03:11:46;;;;;;;0.73;0.30;;;11.40;99.90;;;;;;5052896;28;20493;-57
2024/02/22 03:14:15;;;;;;;0.50;0.30;;;11.40;99.90;;;;;;5052871;28;20448;-57
2024/02/22 03:16:43;;;;;;;2.00;0.40;;;11.40;99.90;;;;;;5052733;28;20499;-58
2024/02/22 03:19:10;;;;;;;0.40;0.37;;;11.30;99.90;;;;;;5052696;28;20962;-58
2024/02/22 03:21:37;;;;;;;0.40;0.40;;;11.40;99.90;;;;;;5052812;28;20490;-58
2024/02/22 03:24:04;;;;;;;0.80;0.70;;;11.40;99.90;;;;;;5052838;28;20504;-58
2024/02/22 03:26:31;;;;;;;0.50;0.37;;;11.40;99.90;;;;;;5052908;28;20445;-58
2024/02/22 03:28:58;;;;;;;0.40;0.30;;;11.40;99.90;;;;;;5052825;28;20456;-58
2024/02/22 03:31:25;;;;;;;0.70;0.50;;;11.40;99.90;;;;;;5052509;28;20555;-58
2024/02/22 03:33:53;;;;;;;1.43;0.30;;;11.40;99.90;;;;;;5052769;28;20445;-58
2024/02/22 03:36:20;;;;;;;1.10;0.57;;;11.40;99.90;;;;;;5052884;28;20985;-58
2024/02/22 03:38:47;;;;;;;0.40;0.30;;;11.50;99.90;;;;;;5070721;28;20440;-58
2024/02/22 03:41:22;;;;;;;0.63;0.30;;;11.50;99.90;;;;;;5072601;28;20465;-57
2024/02/22 03:43:49;;;;;;;0.50;0.40;;;11.40;99.90;;;;;;5072756;28;20430;-57
2024/02/22 03:46:16;;;;;;;0.50;0.40;;;11.50;99.90;;;;;;5072688;28;20837;-58
2024/02/22 03:48:43;;;;;;;1.43;0.30;;;11.40;99.90;;;;;;5072663;28;20441;-58
2024/02/22 03:51:11;;;;;;;2.13;0.40;;;11.50;99.90;;;;;;5072437;28;20468;-58
2024/02/22 03:53:38;;;;;;;0.47;0.43;;;11.50;99.90;;;;;;5072273;28;20910;-58
2024/02/22 03:56:05;;;;;;;0.40;0.33;;;11.40;99.90;;;;;;5072445;28;20445;-58
2024/02/22 03:58:33;;;;;;;0.60;0.40;;;11.50;99.90;;;;;;5072722;28;20444;-57
2024/02/22 04:01:00;;;;;;;0.70;0.40;;;11.40;99.90;;;;;;5072528;28;20498;-57
2024/02/22 04:03:28;;;;;;;0.60;0.50;;;11.40;99.90;;;;;;5072325;28;20815;-57
2024/02/22 04:05:54;;;;;;;0.40;0.40;;;11.40;99.90;;;;;;5075700;28;20445;-57
2024/02/22 04:08:23;;;;;;;1.53;0.47;;;11.50;99.90;;;;;;5075880;28;20451;-57
2024/02/22 04:10:49;;;;;;;0.50;0.40;;;11.40;99.90;;;;;;5075885;28;20511;-57
2024/02/22 04:13:16;;;;;;;0.40;0.30;;;11.50;99.90;;;;;;5075822;28;20484;-57
2024/02/22 04:15:43;;;;;;;0.60;0.40;;;11.50;99.90;;;;;;5075649;28;20977;-58
2024/02/22 04:18:10;;;;;;;0.30;0.30;;;11.50;99.90;;;;;;5075519;28;20498;-58
2024/02/22 04:20:37;;;;;;;0.60;0.30;;;11.50;99.90;;;;;;5075793;28;20492;-58
2024/02/22 04:23:04;;;;;;;1.50;0.50;;;11.50;99.90;;;;;;5075944;28;20808;-58
2024/02/22 04:25:32;;;;;;;0.50;0.37;;;11.50;99.90;;;;;;5063106;28;20461;-58
2024/02/22 04:28:00;;;;;;;0.50;0.50;;;11.60;99.90;;;;;;5055337;28;20441;-58
2024/02/22 04:30:27;;;;;;;0.60;0.40;;;11.60;99.90;;;;;;5056031;28;20555;-58
2024/02/22 04:32:54;;;;;;;0.50;0.40;;;11.60;99.90;;;;;;5055507;28;20489;-58
2024/02/22 04:35:20;;;;;;;1.40;0.40;;;11.60;99.90;;;;;;5055566;28;20850;-58
2024/02/22 04:37:47;;;;;;;1.70;0.40;;;11.60;99.90;;;;;;5055286;28;20810;-58
2024/02/22 04:40:14;;;;;;;2.23;0.63;;;11.60;99.90;;;;;;5055179;28;20465;-58
2024/02/22 04:42:42;;;;;;;0.40;0.40;;;11.60;99.90;;;;;;5055524;28;20448;-58
2024/02/22 04:45:10;;;;;;;0.83;0.33;;;11.60;99.90;;;;;;5055305;28;20445;-58
2024/02/22 04:47:37;;;;;;;2.77;0.60;;;11.60;99.90;;;;;;5055263;28;20480;-58
2024/02/22 04:50:04;;;;;;;1.53;0.30;;;11.60;99.90;;;;;;5054941;28;20482;-58
2024/02/22 04:52:31;;;;;;;0.30;0.30;;;11.60;99.90;;;;;;5055186;28;20477;-58
2024/02/22 04:54:59;;;;;;;0.73;0.50;;;11.60;99.90;;;;;;5054936;28;20487;-58
2024/02/22 04:57:27;;;;;;;1.43;0.70;;;11.60;99.90;;;;;;5055261;28;20521;-58
2024/02/22 04:59:55;;;;;;;0.50;0.50;;;11.60;99.90;;;;;;5055072;28;20462;-58
2024/02/22 05:02:22;;;;;;;1.00;0.53;;;11.60;99.90;;;;;;5055081;28;20442;-58
2024/02/22 05:04:49;;;;;;;0.40;0.40;;;11.60;99.90;;;;;;5054768;28;20950;-58
2024/02/22 05:07:17;;;;;;;0.80;0.50;;;11.60;99.90;;;;;;5054857;28;20449;-57
2024/02/22 05:09:43;;;;;;;1.70;1.60;;;11.60;99.90;;;;;;5054911;28;20468;-58
2024/02/22 05:12:11;;;;;;;0.80;0.50;;;11.60;99.90;;;;;;5055413;28;20485;-57
2024/02/22 05:14:37;;;;;;;0.60;0.53;;;11.70;99.90;;;;;;5054818;28;20524;-57
2024/02/22 05:17:06;;;;;;;0.70;0.40;;;11.70;99.90;;;;;;5054916;28;20446;-57
2024/02/22 05:19:33;;;;;;;0.90;0.60;;;11.70;99.90;;;;;;5054480;28;20794;-58
2024/02/22 05:21:59;;;;;;;1.10;0.70;;;11.70;99.90;;;;;;5054864;28;20446;-58
2024/02/22 05:24:28;;;;;;;1.17;0.63;;;11.70;99.90;;;;;;5054791;28;20448;-57
2024/02/22 05:26:55;;;;;;;1.73;0.53;;;11.70;99.90;;;;;;5055125;28;20492;-57
2024/02/22 05:29:22;;;;;;;0.80;0.47;;;11.70;99.90;;;;;;5054963;28;20525;-57
2024/02/22 05:31:49;;;;;;;1.23;0.50;;;11.70;99.90;;;;;;5055162;28;20643;-57
2024/02/22 05:34:17;;;;;;;3.83;0.60;;;11.70;99.90;;;;;;5054701;28;20524;-57
2024/02/22 05:36:43;;;;;;;1.23;0.90;;;11.70;99.90;;;;;;5054486;28;20444;-57
2024/02/22 05:39:11;;;;;;;4.63;3.40;;;11.70;99.90;;;;;;5054378;28;20450;-57
2024/02/22 05:41:38;;;;;;;3.37;2.10;;;11.70;99.90;;;;;;5054181;28;20223;-57
2024/02/22 05:44:05;;;;;;;3.90;2.75;;;11.70;99.90;;;;;;5053436;28;20435;-57
2024/02/22 05:46:31;;;;;;;2.83;2.63;;;11.80;99.90;;;;;;5053860;28;20203;-56
2024/02/22 05:48:58;;;;;;;3.63;2.27;;;11.80;99.90;;;;;;5053826;28;20441;-57
2024/02/22 05:51:28;;;;;;;3.30;2.50;;;11.70;99.90;;;;;;5053916;28;20473;-57
2024/02/22 05:53:55;;;;;;;4.50;2.50;;;11.80;99.90;;;;;;5053927;28;20580;-57
2024/02/22 05:56:22;;;;;;;4.47;2.67;;;11.80;99.90;;;;;;5054158;28;20446;-57
2024/02/22 05:58:48;;;;;;;2.10;1.90;;;11.80;99.90;;;;;;5054073;28;20481;-57
2024/02/22 06:01:16;;;;;;;1.60;1.00;;;11.80;99.90;;;;;;5053499;28;20975;-57
2024/02/22 06:03:43;;;;;;;1.47;0.80;;;11.80;99.90;;;;;;5053643;28;21021;-57
2024/02/22 06:06:11;;;;;;;1.00;0.80;;;11.80;99.90;;;;;;5053658;28;20457;-57
2024/02/22 06:08:42;;;;;;;1.10;1.00;;;11.80;99.90;;;;;;5053471;28;20964;-57
2024/02/22 06:11:09;;;;;;;2.53;0.90;;;11.80;99.90;;;;;;5053417;28;20911;-57
2024/02/22 06:13:36;;;;;;;3.40;1.40;;;11.80;99.90;;;;;;5053431;28;20481;-57
2024/02/22 06:16:04;;;;;;;3.13;0.80;;;11.80;99.90;;;;;;5053501;28;20991;-57
2024/02/22 06:18:30;;;;;;;3.27;2.27;;;11.70;99.90;;;;;;5053360;28;20932;-57
2024/02/22 06:20:57;;;;;;;6.53;3.20;;;11.70;99.90;;;;;;5053618;28;20461;-57
2024/02/22 06:23:24;;;;;;;8.07;3.50;;;11.70;99.90;;;;;;5053577;28;20453;-57
2024/02/22 06:25:52;;;;;;;2.53;0.70;;;11.70;99.90;;;;;;5053587;28;20447;-57
2024/02/22 06:28:19;;;;;;;1.43;0.93;;;11.80;99.90;;;;;;5052776;28;20442;-57
2024/02/22 06:30:46;;;;;;;6.30;3.60;;;11.80;99.90;;;;;;5053411;28;20465;-58
2024/02/22 06:33:13;;;;;;;3.17;1.00;;;11.80;99.90;;;;;;5053341;28;20512;-57
2024/02/22 06:35:40;;;;;;;9.00;4.60;;;11.70;99.90;;;;;;5053048;28;20457;-58
2024/02/22 06:38:06;;;;;;;15.77;8.80;;;11.70;99.90;;;;;;5053345;28;20441;-58
2024/02/22 06:40:33;;;;;;;24.03;12.40;;;11.70;99.90;;;;;;5053364;28;20472;-58
2024/02/22 06:43:01;;;;;;;20.33;10.80;;;11.70;99.90;;;;;;5053372;28;20963;-58
2024/02/22 06:45:28;;;;;;;22.30;14.10;;;11.70;99.90;;;;;;5053373;28;20445;-57
2024/02/22 06:47:55;;;;;;;14.17;10.10;;;11.70;99.90;;;;;;5053353;28;20445;-57
2024/02/22 06:50:23;;;;;;;10.30;6.90;;;11.70;99.90;;;;;;5053158;28;20471;-57
2024/02/22 06:52:51;;;;;;;5.93;4.60;;;11.60;99.90;;;;;;5052735;28;20482;-57
2024/02/22 06:55:18;;;;;;;4.50;2.60;;;11.70;99.90;;;;;;5053135;28;20493;-57
2024/02/22 06:57:45;;;;;;;1.30;1.20;;;11.70;99.90;;;;;;5053329;28;20441;-57
2024/02/22 07:00:14;;;;;;;4.83;1.27;;;11.70;99.90;;;;;;5053409;28;20469;-58
2024/02/22 07:02:43;;;;;;;1.50;1.03;;;11.70;99.90;;;;;;5053188;28;20442;-58
2024/02/22 07:05:10;;;;;;;2.63;1.70;;;11.80;99.90;;;;;;5053067;28;20449;-58
2024/02/22 07:07:36;;;;;;;1.97;1.50;;;11.80;99.90;;;;;;5053208;28;20448;-58
2024/02/22 07:10:03;;;;;;;3.40;1.50;;;11.80;99.90;;;;;;5053009;28;20470;-58
2024/02/22 07:12:30;;;;;;;0.97;0.97;;;11.80;99.90;;;;;;5052701;28;20493;-57
2024/02/22 07:14:57;;;;;;;1.53;1.23;;;11.80;99.90;;;;;;5053205;28;20445;-57
2024/02/22 07:17:25;;;;;;;2.00;1.13;;;11.90;99.90;;;;;;5053093;28;20475;-57
2024/02/22 07:19:52;;;;;;;2.27;1.27;;;11.90;99.90;;;;;;5053771;28;20472;-58
2024/02/22 07:22:19;;;;;;;1.90;1.00;;;11.90;99.90;;;;;;5053256;28;20448;-57
2024/02/22 07:24:46;;;;;;;1.80;0.93;;;12.00;99.90;;;;;;5052883;28;20469;-58
2024/02/22 07:27:12;;;;;;;2.10;1.30;;;12.00;99.90;;;;;;5052922;28;20445;-57
2024/02/22 07:29:42;;;;;;;3.50;2.53;;;12.00;99.90;;;;;;5052776;28;20456;-58
2024/02/22 07:32:10;;;;;;;3.00;2.23;;;12.00;99.90;;;;;;5052835;28;20460;-57
2024/02/22 07:34:39;;;;;;;7.73;3.50;;;12.00;99.90;;;;;;5052915;28;20476;-58
2024/02/22 07:37:06;;;;;;;4.17;2.67;;;12.00;99.90;;;;;;5052898;28;20449;-58
2024/02/22 07:39:33;;;;;;;5.00;3.17;;;12.00;99.90;;;;;;5054114;28;20954;-58
2024/02/22 07:42:00;;;;;;;4.60;2.87;;;12.00;99.90;;;;;;5056801;28;20456;-58
2024/02/22 07:44:27;;;;;;;6.27;2.67;;;12.10;99.90;;;;;;5057112;28;20445;-57
2024/02/22 07:46:54;;;;;;;3.70;2.33;;;12.10;99.90;;;;;;5057069;28;20441;-58
2024/02/22 07:49:21;;;;;;;2.77;2.33;;;12.10;99.90;;;;;;5056716;28;20441;-58
2024/02/22 07:51:49;;;;;;;2.97;0.93;;;12.20;99.90;;;;;;5056497;28;20465;-58
2024/02/22 07:54:16;;;;;;;0.70;0.57;;;12.20;99.90;;;;;;5056324;28;20579;-58
2024/02/22 07:56:43;;;;;;;2.23;1.40;;;12.30;99.90;;;;;;5056594;28;20450;-57
2024/02/22 07:59:11;;;;;;;1.57;1.00;;;12.40;99.90;;;;;;5056664;28;20449;-57
2024/02/22 08:01:40;;;;;;;1.00;0.60;;;12.50;99.90;;;;;;5057217;28;20469;-57
2024/02/22 08:04:07;;;;;;;1.10;0.63;;;12.60;99.90;;;;;;5057119;28;20442;-57
2024/02/22 08:06:34;;;;;;;2.60;0.63;;;12.50;99.90;;;;;;5056763;28;20907;-58
2024/02/22 08:09:03;;;;;;;1.23;0.60;;;12.60;99.90;;;;;;5056089;28;20948;-58
2024/02/22 08:11:29;;;;;;;0.63;0.60;;;12.60;99.90;;;;;;5056136;28;20461;-57
2024/02/22 08:13:56;;;;;;;1.10;0.57;;;12.50;99.90;;;;;;5057024;28;20483;-57
2024/02/22 08:16:23;;;;;;;0.90;0.57;;;12.50;99.90;;;;;;5056057;28;20456;-57
2024/02/22 08:18:50;;;;;;;0.87;0.70;;;12.50;99.90;;;;;;5055793;28;20450;-57
2024/02/22 08:21:19;;;;;;;1.10;0.60;;;12.50;99.90;;;;;;5055992;28;20468;-57
2024/02/22 08:23:51;;;;;;;4.13;0.90;;;12.60;99.90;;;;;;5056126;28;20433;-57
2024/02/22 08:26:19;;;;;;;3.63;0.90;;;12.70;99.90;;;;;;5055859;28;20553;-57
2024/02/22 08:28:46;;;;;;;2.50;2.20;;;12.70;99.90;;;;;;5055702;28;20452;-57
2024/02/22 08:31:13;;;;;;;4.37;0.87;;;12.70;99.90;;;;;;5055370;28;21002;-57
2024/02/22 08:33:41;;;;;;;2.77;1.10;;;12.80;99.90;;;;;;5055542;28;20481;-57
2024/02/22 08:36:08;;;;;;;2.13;1.03;;;12.90;99.90;;;;;;5055270;28;20507;-57
2024/02/22 08:38:35;;;;;;;2.63;0.87;;;13.00;99.90;;;;;;5055163;28;20962;-57
2024/02/22 08:41:03;;;;;;;3.30;1.03;;;13.00;99.90;;;;;;5055582;28;20469;-57
2024/02/22 08:43:31;;;;;;;1.73;0.87;;;13.10;99.90;;;;;;5055315;28;20450;-57
2024/02/22 08:46:01;;;;;;;1.70;1.00;;;13.10;99.90;;;;;;5055187;28;20448;-57
2024/02/22 08:48:27;;;;;;;2.40;1.47;;;13.10;99.90;;;;;;5055795;28;20442;-57
2024/02/22 08:50:57;;;;;;;2.57;1.23;;;13.00;99.90;;;;;;5055692;28;20556;-57
2024/02/22 08:53:24;;;;;;;2.10;1.10;;;13.00;99.90;;;;;;5055451;28;20484;-57
2024/02/22 08:55:51;;;;;;;1.57;1.00;;;13.00;99.90;;;;;;5055787;28;20792;-57
2024/02/22 08:58:38;;;;;;;2.23;0.80;;;12.90;99.90;;;;;;5055377;28;20448;-57
2024/02/22 09:01:05;;;;;;;1.10;1.00;;;13.00;99.90;;;;;;5055288;28;20477;-57
2024/02/22 09:03:32;;;;;;;0.70;0.67;;;13.00;99.90;;;;;;5055351;28;20433;-57
2024/02/22 09:05:58;;;;;;;0.67;0.67;;;13.00;99.90;;;;;;5054842;28;20965;-57
2024/02/22 09:08:25;;;;;;;1.60;0.40;;;13.00;99.90;;;;;;5054979;28;20496;-57
2024/02/22 09:10:52;;;;;;;0.83;0.70;;;13.00;99.90;;;;;;5054927;28;20493;-57
2024/02/22 09:13:19;;;;;;;0.77;0.60;;;13.00;99.90;;;;;;5054918;28;20485;-56
2024/02/22 09:15:49;;;;;;;0.50;0.40;;;13.00;99.90;;;;;;5054864;28;20441;-57
2024/02/22 09:18:17;;;;;;;0.70;0.70;;;13.00;99.90;;;;;;5054968;28;20453;-57
2024/02/22 09:20:44;;;;;;;0.70;0.60;;;13.00;99.90;;;;;;5054811;28;20493;-57
2024/02/22 09:23:12;;;;;;;1.63;0.70;;;13.00;99.90;;;;;;5054578;28;20481;-57
2024/02/22 09:25:39;;;;;;;0.50;0.50;;;13.00;99.90;;;;;;5054475;28;21029;-57
2024/02/22 09:28:07;;;;;;;1.27;0.60;;;13.00;99.90;;;;;;5054689;28;20442;-56
2024/02/22 09:30:34;;;;;;;6.53;0.60;;;13.00;99.90;;;;;;5054454;28;20494;-57
2024/02/22 09:33:03;;;;;;;0.67;0.57;;;12.90;99.90;;;;;;5054956;28;20449;-57
2024/02/22 09:35:30;;;;;;;1.53;0.80;;;13.00;99.90;;;;;;5054165;28;20446;-57
2024/02/22 09:37:56;;;;;;;0.70;0.43;;;13.00;99.90;;;;;;5054239;28;20442;-57
2024/02/22 09:40:23;;;;;;;0.50;0.50;;;13.10;99.90;;;;;;5054463;28;20549;-57
2024/02/22 09:42:50;;;;;;;3.13;0.40;;;13.20;99.90;;;;;;5054074;28;20445;-57
2024/02/22 09:45:18;;;;;;;0.67;0.40;;;13.30;99.90;;;;;;5054360;28;20442;-57
2024/02/22 09:47:46;;;;;;;1.27;0.60;;;13.40;99.90;;;;;;5054642;28;20452;-57
2024/02/22 09:50:14;;;;;;;1.43;0.50;;;13.40;99.90;;;;;;5054108;28;20473;-57
2024/02/22 09:52:41;;;;;;;0.80;0.50;;;13.60;99.90;;;;;;5054097;28;20448;-56
2024/02/22 09:55:11;;;;;;;1.27;0.40;;;13.70;99.90;;;;;;5054161;28;20490;-57
2024/02/22 09:57:38;;;;;;;0.60;0.43;;;13.80;99.90;;;;;;5055050;28;20437;-57
2024/02/22 10:00:07;;;;;;;0.60;0.53;;;13.90;99.90;;;;;;5054247;28;20465;-57
2024/02/22 10:02:35;;;;;;;1.07;0.80;;;14.00;99.90;;;;;;5053048;28;20459;-57
2024/02/22 10:05:03;;;;;;;2.10;1.23;;;14.10;99.90;;;;;;5054136;28;20453;-57
2024/02/22 10:07:35;;;;;;;0.90;0.77;;;14.20;99.90;;;;;;5054138;28;20461;-57
2024/02/22 10:10:02;;;;;;;0.70;0.53;;;14.20;99.90;;;;;;5053878;28;20461;-57
2024/02/22 10:12:30;;;;;;;0.57;0.57;;;14.30;99.90;;;;;;5053546;28;20936;-56
2024/02/22 10:14:57;;;;;;;0.97;0.47;;;14.40;99.90;;;;;;5053914;28;20482;-57
2024/02/22 10:17:25;;;;;;;0.50;0.50;;;14.50;99.90;;;;;;5054010;28;20446;-57
2024/02/22 10:19:56;;;;;;;0.67;0.57;;;14.60;99.90;;;;;;5053686;28;20464;-57
2024/02/22 10:22:24;;;;;;;0.60;0.57;;;14.70;99.90;;;;;;5053939;28;20445;-56
2024/02/22 10:24:53;;;;;;;0.50;0.50;;;14.70;99.90;;;;;;5053756;28;20507;-57
2024/02/22 10:27:20;;;;;;;1.13;0.57;;;14.70;99.90;;;;;;5053674;28;20492;-56
2024/02/22 10:29:48;;;;;;;0.43;0.40;;;14.70;99.90;;;;;;5053581;28;20545;-57
2024/02/22 10:32:18;;;;;;;1.80;0.50;;;14.70;99.90;;;;;;5053371;28;20936;-57
2024/02/22 10:34:46;;;;;;;0.43;0.40;;;14.70;99.90;;;;;;5053516;28;20470;-57
2024/02/22 10:37:14;;;;;;;0.53;0.43;;;14.70;99.90;;;;;;5053164;28;20445;-57
2024/02/22 10:39:44;;;;;;;0.83;0.40;;;14.80;99.90;;;;;;5053181;28;21027;-57
2024/02/22 10:42:13;;;;;;;0.40;0.40;;;14.90;99.90;;;;;;5053595;28;20434;-57
2024/02/22 10:44:42;;;;;;;0.60;0.40;;;14.90;99.90;;;;;;5054178;28;20445;-58
2024/02/22 10:47:10;;;;;;;1.33;0.40;;;15.00;99.90;;;;;;5053201;28;20452;-57
2024/02/22 10:49:38;;;;;;;0.50;0.50;;;15.00;99.90;;;;;;5053598;28;20451;-57
2024/02/22 10:52:06;;;;;;;0.60;0.40;;;15.00;99.90;;;;;;5053014;28;20939;-57
2024/02/22 10:54:34;;;;;;;0.80;0.40;;;15.00;99.90;;;;;;5053035;28;20489;-57
2024/02/22 10:57:02;;;;;;;1.00;0.40;;;14.90;99.90;;;;;;5053343;28;20447;-57
2024/02/22 10:59:32;;;;;;;3.53;0.40;;;14.90;99.90;;;;;;5053317;28;20448;-57
2024/02/22 11:01:59;;;;;;;0.40;0.30;;;14.80;99.90;;;;;;5054227;28;20458;-57
2024/02/22 11:04:27;;;;;;;0.53;0.43;;;14.80;99.90;;;;;;5053224;28;20440;-57
2024/02/22 11:06:54;;;;;;;0.50;0.40;;;14.80;99.90;;;;;;5052842;28;20959;-57
2024/02/22 11:09:22;;;;;;;0.63;0.37;;;14.80;99.90;;;;;;5053115;28;20475;-56
2024/02/22 11:11:51;;;;;;;1.03;0.60;;;14.80;99.90;;;;;;5052651;28;20465;-57
2024/02/22 11:14:27;;;;;;;0.43;0.30;;;14.70;99.90;;;;;;5055660;28;20485;-57
2024/02/22 11:16:55;;;;;;;1.03;0.60;;;14.60;99.90;;;;;;5057257;28;20433;-57
2024/02/22 11:19:26;;;;;;;2.20;0.40;;;14.60;99.90;;;;;;5057200;28;20473;-57
2024/02/22 11:21:53;;;;;;;1.43;1.00;;;14.50;99.90;;;;;;5057049;28;20488;-58
2024/02/22 11:24:24;;;;;;;0.60;0.30;;;14.50;99.90;;;;;;5056696;28;20443;-58
2024/02/22 11:26:51;;;;;;;0.60;0.40;;;14.50;99.90;;;;;;5056885;28;20449;-57
2024/02/22 11:29:29;;;;;;;0.40;0.27;;;14.50;99.90;;;;;;5056869;28;20462;-57
2024/02/22 11:31:59;;;;;;;0.73;0.40;;;14.50;99.90;;;;;;5056699;28;20523;-57
2024/02/22 11:34:27;;;;;;;0.50;0.43;;;14.60;99.90;;;;;;5056389;28;20994;-57
2024/02/22 11:36:55;;;;;;;0.80;0.60;;;14.50;99.90;;;;;;5056740;28;20445;-58
2024/02/22 11:39:22;;;;;;;0.60;0.40;;;14.50;99.90;;;;;;5056340;28;20952;-57
2024/02/22 11:41:49;;;;;;;0.47;0.40;;;14.50;99.90;;;;;;5056352;28;20476;-57
2024/02/22 11:44:17;;;;;;;0.60;0.40;;;14.40;99.90;;;;;;5056837;28;20438;-58
2024/02/22 11:46:45;;;;;;;0.53;0.50;;;14.40;99.90;;;;;;5056773;28;20445;-58
2024/02/22 11:49:14;;;;;;;0.60;0.40;;;14.40;99.90;;;;;;5056731;28;20437;-58
2024/02/22 11:51:41;;;;;;;0.40;0.40;;;14.40;99.90;;;;;;5056049;28;20564;-58
2024/02/22 11:54:09;;;;;;;0.80;0.30;;;14.40;99.90;;;;;;5056105;28;20484;-58
2024/02/22 11:56:37;;;;;;;0.47;0.40;;;14.40;99.90;;;;;;5056430;28;20459;-57
2024/02/22 11:59:04;;;;;;;0.30;0.30;;;14.40;99.90;;;;;;5056345;28;20449;-57
2024/02/22 12:01:33;;;;;;;0.97;0.40;;;14.40;99.90;;;;;;5056384;28;20469;-57
2024/02/22 12:04:00;;;;;;;0.97;0.40;;;14.40;99.90;;;;;;5057332;28;20446;-57
2024/02/22 12:06:29;;;;;;;1.80;0.40;;;14.40;99.90;;;;;;5056667;28;20449;-57
2024/02/22 12:08:56;;;;;;;1.83;0.57;;;14.30;99.90;;;;;;5056987;28;20446;-57
2024/02/22 12:11:23;;;;;;;0.70;0.40;;;14.30;99.90;;;;;;5056265;28;20464;-57
2024/02/22 12:13:57;;;;;;;1.80;0.30;;;14.30;99.90;;;;;;5056005;28;20449;-57
2024/02/22 12:16:24;;;;;;;2.13;0.70;;;14.30;99.90;;;;;;5055768;28;20948;-57
2024/02/22 12:18:53;;;;;;;1.90;0.70;;;14.30;99.90;;;;;;5056108;28;20449;-57
2024/02/22 12:21:22;;;;;;;0.70;0.50;;;14.30;99.90;;;;;;5056021;28;20465;-57
2024/02/22 12:23:50;;;;;;;1.00;0.40;;;14.30;99.90;;;;;;5055921;28;20499;-57
2024/02/22 12:26:18;;;;;;;0.50;0.50;;;14.30;99.90;;;;;;5054797;28;20440;-57
2024/02/22 12:28:50;;;;;;;0.97;0.60;;;14.30;99.90;;;;;;5055746;28;20948;-57
2024/02/22 12:31:18;;;;;;;0.77;0.60;;;14.40;99.90;;;;;;5055640;28;20461;-57
2024/02/22 12:33:46;;;;;;;0.40;0.40;;;14.40;99.90;;;;;;5055548;28;20454;-57
2024/02/22 12:36:13;;;;;;;5.17;0.63;;;14.40;99.90;;;;;;5055760;28;20437;-57
2024/02/22 12:38:39;;;;;;;0.97;0.30;;;14.60;99.90;;;;;;5055381;28;20973;-57
2024/02/22 12:41:08;;;;;;;0.50;0.33;;;14.70;99.90;;;;;;5055311;28;20461;-57
2024/02/22 12:43:34;;;;;;;0.40;0.40;;;14.70;99.90;;;;;;5055666;28;20441;-57
2024/02/22 12:46:01;;;;;;;1.53;0.50;;;14.70;99.90;;;;;;5055211;28;20429;-57
2024/02/22 12:48:28;;;;;;;1.47;0.40;;;14.80;99.90;;;;;;5055293;28;20452;-57